sensor_id;sensor_type;location;lat;lon;timestamp;temperature;humidity
19567;DHT22;9930;49.240;8.548;2022-08-21T00:02:18;22.00;51.70
19567;DHT22;9930;49.240;8.548;2022-08-21T00:04:47;22.00;52.20
19567;DHT22;9930;49.240;8.548;2022-08-21T00:07:14;21.90;51.80
19567;DHT22;9930;49.240;8.548;2022-08-21T00:09:42;21.90;52.00
19567;DHT22;9930;49.240;8.548;2022-08-21T00:12:11;21.80;52.20
19567;DHT22;9930;49.240;8.548;2022-08-21T00:14:41;21.80;52.40
19567;DHT22;9930;49.240;8.548;2022-08-21T00:17:14;21.80;52.50
19567;DHT22;9930;49.240;8.548;2022-08-21T00:19:44;21.70;52.60
19567;DHT22;9930;49.240;8.548;2022-08-21T00:22:11;21.70;52.60
19567;DHT22;9930;49.240;8.548;2022-08-21T00:24:41;21.70;52.60
19567;DHT22;9930;49.240;8.548;2022-08-21T00:27:11;21.70;53.00
19567;DHT22;9930;49.240;8.548;2022-08-21T00:29:41;21.60;53.10
19567;DHT22;9930;49.240;8.548;2022-08-21T00:32:11;21.60;53.10
19567;DHT22;9930;49.240;8.548;2022-08-21T00:34:43;21.50;53.10
19567;DHT22;9930;49.240;8.548;2022-08-21T00:37:11;21.40;53.30
19567;DHT22;9930;49.240;8.548;2022-08-21T00:39:44;21.40;53.20
19567;DHT22;9930;49.240;8.548;2022-08-21T00:42:13;21.40;53.30
19567;DHT22;9930;49.240;8.548;2022-08-21T00:44:43;21.30;53.30
19567;DHT22;9930;49.240;8.548;2022-08-21T00:47:14;21.20;53.50
19567;DHT22;9930;49.240;8.548;2022-08-21T00:49:41;21.20;53.90
19567;DHT22;9930;49.240;8.548;2022-08-21T00:52:15;21.10;53.90
19567;DHT22;9930;49.240;8.548;2022-08-21T00:54:48;21.10;54.30
19567;DHT22;9930;49.240;8.548;2022-08-21T00:57:21;21.00;54.10
19567;DHT22;9930;49.240;8.548;2022-08-21T00:59:56;21.00;54.50
19567;DHT22;9930;49.240;8.548;2022-08-21T01:02:26;21.00;54.40
19567;DHT22;9930;49.240;8.548;2022-08-21T01:04:53;20.90;54.40
19567;DHT22;9930;49.240;8.548;2022-08-21T01:07:19;20.90;54.50
19567;DHT22;9930;49.240;8.548;2022-08-21T01:09:46;20.90;54.70
19567;DHT22;9930;49.240;8.548;2022-08-21T01:12:14;20.90;55.00
19567;DHT22;9930;49.240;8.548;2022-08-21T01:14:45;20.90;55.20
19567;DHT22;9930;49.240;8.548;2022-08-21T01:17:15;20.80;55.20
19567;DHT22;9930;49.240;8.548;2022-08-21T01:19:44;20.80;55.40
19567;DHT22;9930;49.240;8.548;2022-08-21T01:22:12;20.80;55.20
19567;DHT22;9930;49.240;8.548;2022-08-21T01:24:44;20.80;55.30
19567;DHT22;9930;49.240;8.548;2022-08-21T01:27:15;20.70;55.30
19567;DHT22;9930;49.240;8.548;2022-08-21T01:29:59;20.70;55.70
19567;DHT22;9930;49.240;8.548;2022-08-21T01:32:42;20.70;56.10
19567;DHT22;9930;49.240;8.548;2022-08-21T01:35:12;20.60;55.70
19567;DHT22;9930;49.240;8.548;2022-08-21T01:37:42;20.60;55.80
19567;DHT22;9930;49.240;8.548;2022-08-21T01:40:15;20.60;55.80
19567;DHT22;9930;49.240;8.548;2022-08-21T01:42:43;20.60;56.10
19567;DHT22;9930;49.240;8.548;2022-08-21T01:45:12;20.50;56.20
19567;DHT22;9930;49.240;8.548;2022-08-21T01:47:42;20.50;56.30
19567;DHT22;9930;49.240;8.548;2022-08-21T01:50:14;20.50;56.20
19567;DHT22;9930;49.240;8.548;2022-08-21T01:52:42;20.50;56.40
19567;DHT22;9930;49.240;8.548;2022-08-21T01:55:13;20.50;56.50
19567;DHT22;9930;49.240;8.548;2022-08-21T01:57:42;20.40;56.70
19567;DHT22;9930;49.240;8.548;2022-08-21T02:00:14;20.40;56.70
19567;DHT22;9930;49.240;8.548;2022-08-21T02:02:42;20.40;56.90
19567;DHT22;9930;49.240;8.548;2022-08-21T02:05:12;20.40;56.70
19567;DHT22;9930;49.240;8.548;2022-08-21T02:07:46;20.40;56.70
19567;DHT22;9930;49.240;8.548;2022-08-21T02:10:16;20.40;56.70
19567;DHT22;9930;49.240;8.548;2022-08-21T02:12:48;20.40;56.60
19567;DHT22;9930;49.240;8.548;2022-08-21T02:15:17;20.40;56.60
19567;DHT22;9930;49.240;8.548;2022-08-21T02:17:53;20.30;56.60
19567;DHT22;9930;49.240;8.548;2022-08-21T02:20:30;20.30;56.60
19567;DHT22;9930;49.240;8.548;2022-08-21T02:22:58;20.30;56.40
19567;DHT22;9930;49.240;8.548;2022-08-21T02:25:29;20.30;56.50
19567;DHT22;9930;49.240;8.548;2022-08-21T02:27:56;20.20;56.60
19567;DHT22;9930;49.240;8.548;2022-08-21T02:30:27;20.20;56.60
19567;DHT22;9930;49.240;8.548;2022-08-21T02:33:06;20.10;56.50
19567;DHT22;9930;49.240;8.548;2022-08-21T02:35:42;20.10;56.40
19567;DHT22;9930;49.240;8.548;2022-08-21T02:38:15;20.10;56.70
19567;DHT22;9930;49.240;8.548;2022-08-21T02:40:48;20.00;56.80
19567;DHT22;9930;49.240;8.548;2022-08-21T02:43:15;20.00;56.60
19567;DHT22;9930;49.240;8.548;2022-08-21T02:45:46;19.90;56.60
19567;DHT22;9930;49.240;8.548;2022-08-21T02:48:17;19.90;56.70
19567;DHT22;9930;49.240;8.548;2022-08-21T02:50:52;19.80;56.90
19567;DHT22;9930;49.240;8.548;2022-08-21T02:53:26;19.80;57.30
19567;DHT22;9930;49.240;8.548;2022-08-21T02:55:53;19.80;57.20
19567;DHT22;9930;49.240;8.548;2022-08-21T02:58:26;19.70;57.30
19567;DHT22;9930;49.240;8.548;2022-08-21T03:00:53;19.70;57.60
19567;DHT22;9930;49.240;8.548;2022-08-21T03:03:22;19.60;57.30
19567;DHT22;9930;49.240;8.548;2022-08-21T03:05:48;19.60;57.30
19567;DHT22;9930;49.240;8.548;2022-08-21T03:08:14;19.60;57.40
19567;DHT22;9930;49.240;8.548;2022-08-21T03:10:47;19.50;57.50
19567;DHT22;9930;49.240;8.548;2022-08-21T03:13:17;19.50;57.60
19567;DHT22;9930;49.240;8.548;2022-08-21T03:15:48;19.50;57.70
19567;DHT22;9930;49.240;8.548;2022-08-21T03:18:19;19.50;57.80
19567;DHT22;9930;49.240;8.548;2022-08-21T03:20:48;19.40;57.90
19567;DHT22;9930;49.240;8.548;2022-08-21T03:23:15;19.40;57.90
19567;DHT22;9930;49.240;8.548;2022-08-21T03:25:42;19.30;58.00
19567;DHT22;9930;49.240;8.548;2022-08-21T03:28:15;19.30;58.20
19567;DHT22;9930;49.240;8.548;2022-08-21T03:30:45;19.30;58.30
19567;DHT22;9930;49.240;8.548;2022-08-21T03:33:14;19.20;58.20
19567;DHT22;9930;49.240;8.548;2022-08-21T03:35:43;19.20;58.40
19567;DHT22;9930;49.240;8.548;2022-08-21T03:38:12;19.20;58.50
19567;DHT22;9930;49.240;8.548;2022-08-21T03:40:42;19.10;58.60
19567;DHT22;9930;49.240;8.548;2022-08-21T03:43:12;19.10;58.80
19567;DHT22;9930;49.240;8.548;2022-08-21T03:45:41;19.10;58.80
19567;DHT22;9930;49.240;8.548;2022-08-21T03:48:11;19.10;59.00
19567;DHT22;9930;49.240;8.548;2022-08-21T03:50:45;19.10;58.90
19567;DHT22;9930;49.240;8.548;2022-08-21T03:53:14;19.00;59.10
19567;DHT22;9930;49.240;8.548;2022-08-21T03:55:44;19.00;58.80
19567;DHT22;9930;49.240;8.548;2022-08-21T03:58:13;19.00;59.00
19567;DHT22;9930;49.240;8.548;2022-08-21T04:00:50;19.00;59.00
19567;DHT22;9930;49.240;8.548;2022-08-21T04:03:18;19.00;59.30
19567;DHT22;9930;49.240;8.548;2022-08-21T04:05:45;19.10;59.20
19567;DHT22;9930;49.240;8.548;2022-08-21T04:08:17;19.00;59.10
19567;DHT22;9930;49.240;8.548;2022-08-21T04:10:48;19.00;59.20
19567;DHT22;9930;49.240;8.548;2022-08-21T04:13:20;19.00;59.10
19567;DHT22;9930;49.240;8.548;2022-08-21T04:15:48;19.00;59.20
19567;DHT22;9930;49.240;8.548;2022-08-21T04:18:17;19.00;59.30
19567;DHT22;9930;49.240;8.548;2022-08-21T04:20:45;19.00;59.40
19567;DHT22;9930;49.240;8.548;2022-08-21T04:23:13;19.00;59.50
19567;DHT22;9930;49.240;8.548;2022-08-21T04:25:41;18.90;59.60
19567;DHT22;9930;49.240;8.548;2022-08-21T04:28:12;18.90;59.60
19567;DHT22;9930;49.240;8.548;2022-08-21T04:30:41;18.90;59.70
19567;DHT22;9930;49.240;8.548;2022-08-21T04:33:14;18.80;59.70
19567;DHT22;9930;49.240;8.548;2022-08-21T04:35:42;18.80;59.70
19567;DHT22;9930;49.240;8.548;2022-08-21T04:38:11;18.80;59.70
19567;DHT22;9930;49.240;8.548;2022-08-21T04:40:42;18.80;60.00
19567;DHT22;9930;49.240;8.548;2022-08-21T04:43:11;18.80;60.10
19567;DHT22;9930;49.240;8.548;2022-08-21T04:45:44;18.70;60.10
19567;DHT22;9930;49.240;8.548;2022-08-21T04:48:17;18.70;60.20
19567;DHT22;9930;49.240;8.548;2022-08-21T04:53:44;18.70;60.90
19567;DHT22;9930;49.240;8.548;2022-08-21T04:56:22;18.70;60.80
19567;DHT22;9930;49.240;8.548;2022-08-21T04:58:55;18.70;61.00
19567;DHT22;9930;49.240;8.548;2022-08-21T05:01:30;18.80;60.70
19567;DHT22;9930;49.240;8.548;2022-08-21T05:04:02;18.80;60.80
19567;DHT22;9930;49.240;8.548;2022-08-21T05:06:33;18.80;61.00
19567;DHT22;9930;49.240;8.548;2022-08-21T05:09:12;18.90;61.30
19567;DHT22;9930;49.240;8.548;2022-08-21T05:11:44;18.90;61.30
19567;DHT22;9930;49.240;8.548;2022-08-21T05:14:12;18.90;61.20
19567;DHT22;9930;49.240;8.548;2022-08-21T05:16:41;18.90;61.30
19567;DHT22;9930;49.240;8.548;2022-08-21T05:19:16;18.90;61.30
19567;DHT22;9930;49.240;8.548;2022-08-21T05:21:47;19.00;61.20
19567;DHT22;9930;49.240;8.548;2022-08-21T05:24:14;19.00;61.00
19567;DHT22;9930;49.240;8.548;2022-08-21T05:26:41;19.00;61.00
19567;DHT22;9930;49.240;8.548;2022-08-21T05:29:11;19.10;61.10
19567;DHT22;9930;49.240;8.548;2022-08-21T05:31:42;19.00;61.00
19567;DHT22;9930;49.240;8.548;2022-08-21T05:34:13;19.10;61.40
19567;DHT22;9930;49.240;8.548;2022-08-21T05:36:46;19.10;61.50
19567;DHT22;9930;49.240;8.548;2022-08-21T05:39:12;19.10;61.50
19567;DHT22;9930;49.240;8.548;2022-08-21T05:41:45;19.20;61.60
19567;DHT22;9930;49.240;8.548;2022-08-21T05:44:14;19.20;61.80
19567;DHT22;9930;49.240;8.548;2022-08-21T05:46:44;19.20;61.70
19567;DHT22;9930;49.240;8.548;2022-08-21T05:49:16;19.30;62.20
19567;DHT22;9930;49.240;8.548;2022-08-21T05:51:42;19.30;62.00
19567;DHT22;9930;49.240;8.548;2022-08-21T05:54:12;19.40;62.00
19567;DHT22;9930;49.240;8.548;2022-08-21T05:56:46;19.40;62.20
19567;DHT22;9930;49.240;8.548;2022-08-21T05:59:12;19.40;62.40
19567;DHT22;9930;49.240;8.548;2022-08-21T06:01:41;19.50;62.10
19567;DHT22;9930;49.240;8.548;2022-08-21T06:04:14;19.60;62.20
19567;DHT22;9930;49.240;8.548;2022-08-21T06:06:45;19.60;62.30
19567;DHT22;9930;49.240;8.548;2022-08-21T06:09:12;19.70;62.30
19567;DHT22;9930;49.240;8.548;2022-08-21T06:11:42;19.80;62.30
19567;DHT22;9930;49.240;8.548;2022-08-21T06:14:13;19.80;62.50
19567;DHT22;9930;49.240;8.548;2022-08-21T06:16:44;19.90;63.20
19567;DHT22;9930;49.240;8.548;2022-08-21T06:19:15;20.20;64.00
19567;DHT22;9930;49.240;8.548;2022-08-21T06:21:43;20.40;64.60
19567;DHT22;9930;49.240;8.548;2022-08-21T06:24:12;20.80;64.90
19567;DHT22;9930;49.240;8.548;2022-08-21T06:26:41;21.10;64.90
19567;DHT22;9930;49.240;8.548;2022-08-21T06:29:13;21.50;64.70
19567;DHT22;9930;49.240;8.548;2022-08-21T06:31:43;21.80;64.30
19567;DHT22;9930;49.240;8.548;2022-08-21T06:34:12;22.20;63.80
19567;DHT22;9930;49.240;8.548;2022-08-21T06:36:44;22.50;63.10
19567;DHT22;9930;49.240;8.548;2022-08-21T06:39:11;22.90;62.30
19567;DHT22;9930;49.240;8.548;2022-08-21T06:41:41;23.20;62.00
19567;DHT22;9930;49.240;8.548;2022-08-21T06:44:07;23.40;61.30
19567;DHT22;9930;49.240;8.548;2022-08-21T06:46:39;23.70;60.80
19567;DHT22;9930;49.240;8.548;2022-08-21T06:49:11;24.00;60.20
19567;DHT22;9930;49.240;8.548;2022-08-21T06:51:41;24.20;59.60
19567;DHT22;9930;49.240;8.548;2022-08-21T06:54:07;24.40;59.20
19567;DHT22;9930;49.240;8.548;2022-08-21T06:56:36;24.60;58.80
19567;DHT22;9930;49.240;8.548;2022-08-21T06:59:06;24.70;58.40
19567;DHT22;9930;49.240;8.548;2022-08-21T07:01:41;24.80;58.00
19567;DHT22;9930;49.240;8.548;2022-08-21T07:04:11;24.90;57.60
19567;DHT22;9930;49.240;8.548;2022-08-21T07:06:45;25.00;57.30
19567;DHT22;9930;49.240;8.548;2022-08-21T07:09:13;25.10;56.80
19567;DHT22;9930;49.240;8.548;2022-08-21T07:11:41;25.20;56.80
19567;DHT22;9930;49.240;8.548;2022-08-21T07:14:11;25.30;56.50
19567;DHT22;9930;49.240;8.548;2022-08-21T07:16:41;25.40;56.40
19567;DHT22;9930;49.240;8.548;2022-08-21T07:19:11;25.40;56.20
19567;DHT22;9930;49.240;8.548;2022-08-21T07:21:38;25.50;55.90
19567;DHT22;9930;49.240;8.548;2022-08-21T07:24:04;25.50;55.80
19567;DHT22;9930;49.240;8.548;2022-08-21T07:26:30;25.50;55.50
19567;DHT22;9930;49.240;8.548;2022-08-21T07:28:59;25.50;55.40
19567;DHT22;9930;49.240;8.548;2022-08-21T07:31:27;25.60;55.10
19567;DHT22;9930;49.240;8.548;2022-08-21T07:33:53;25.60;55.10
19567;DHT22;9930;49.240;8.548;2022-08-21T07:36:22;25.60;55.80
19567;DHT22;9930;49.240;8.548;2022-08-21T07:38:52;25.70;55.10
19567;DHT22;9930;49.240;8.548;2022-08-21T07:41:22;25.70;55.00
19567;DHT22;9930;49.240;8.548;2022-08-21T07:43:50;25.70;54.50
19567;DHT22;9930;49.240;8.548;2022-08-21T07:46:16;25.80;54.70
19567;DHT22;9930;49.240;8.548;2022-08-21T07:48:45;25.80;54.60
19567;DHT22;9930;49.240;8.548;2022-08-21T07:51:25;25.80;54.60
19567;DHT22;9930;49.240;8.548;2022-08-21T07:54:28;25.80;54.00
19567;DHT22;9930;49.240;8.548;2022-08-21T07:57:19;25.90;54.10
19567;DHT22;9930;49.240;8.548;2022-08-21T07:59:57;25.90;53.00
19567;DHT22;9930;49.240;8.548;2022-08-21T08:09:30;26.10;53.40
19567;DHT22;9930;49.240;8.548;2022-08-21T08:12:05;26.10;53.00
19567;DHT22;9930;49.240;8.548;2022-08-21T08:14:45;26.10;53.40
19567;DHT22;9930;49.240;8.548;2022-08-21T08:17:14;26.20;53.30
19567;DHT22;9930;49.240;8.548;2022-08-21T08:20:06;26.40;53.20
19567;DHT22;9930;49.240;8.548;2022-08-21T08:23:25;26.40;52.20
19567;DHT22;9930;49.240;8.548;2022-08-21T08:26:12;26.50;52.00
19567;DHT22;9930;49.240;8.548;2022-08-21T08:29:01;26.60;51.60
19567;DHT22;9930;49.240;8.548;2022-08-21T08:32:14;26.70;51.70
19567;DHT22;9930;49.240;8.548;2022-08-21T08:34:58;26.80;50.90
19567;DHT22;9930;49.240;8.548;2022-08-21T08:37:47;26.80;50.90
19567;DHT22;9930;49.240;8.548;2022-08-21T08:43:51;26.90;50.70
19567;DHT22;9930;49.240;8.548;2022-08-21T08:46:47;26.90;50.50
19567;DHT22;9930;49.240;8.548;2022-08-21T08:53:06;27.00;50.10
19567;DHT22;9930;49.240;8.548;2022-08-21T08:56:22;27.00;50.10
19567;DHT22;9930;49.240;8.548;2022-08-21T09:00:30;27.10;50.10
19567;DHT22;9930;49.240;8.548;2022-08-21T09:03:32;27.10;50.00
19567;DHT22;9930;49.240;8.548;2022-08-21T09:17:06;27.40;49.60
19567;DHT22;9930;49.240;8.548;2022-08-21T09:27:22;27.50;48.50
19567;DHT22;9930;49.240;8.548;2022-08-21T09:30:36;27.60;48.30
19567;DHT22;9930;49.240;8.548;2022-08-21T09:33:24;27.70;48.60
19567;DHT22;9930;49.240;8.548;2022-08-21T09:36:24;27.70;48.70
19567;DHT22;9930;49.240;8.548;2022-08-21T09:40:13;27.90;47.90
19567;DHT22;9930;49.240;8.548;2022-08-21T09:46:38;28.20;48.60
19567;DHT22;9930;49.240;8.548;2022-08-21T09:50:06;28.40;48.10
19567;DHT22;9930;49.240;8.548;2022-08-21T09:57:35;28.60;46.80
19567;DHT22;9930;49.240;8.548;2022-08-21T10:01:03;28.70;46.10
19567;DHT22;9930;49.240;8.548;2022-08-21T10:03:44;28.90;46.10
19567;DHT22;9930;49.240;8.548;2022-08-21T10:06:33;29.00;46.40
19567;DHT22;9930;49.240;8.548;2022-08-21T10:13:17;29.10;45.10
19567;DHT22;9930;49.240;8.548;2022-08-21T10:16:19;29.20;45.00
19567;DHT22;9930;49.240;8.548;2022-08-21T10:35:40;29.30;43.60
19567;DHT22;9930;49.240;8.548;2022-08-21T10:39:21;29.30;42.80
19567;DHT22;9930;49.240;8.548;2022-08-21T11:00:29;29.40;42.30
19567;DHT22;9930;49.240;8.548;2022-08-21T11:06:27;29.40;42.90
19567;DHT22;9930;49.240;8.548;2022-08-21T11:09:30;29.50;43.20
19567;DHT22;9930;49.240;8.548;2022-08-21T11:26:15;30.00;42.70
19567;DHT22;9930;49.240;8.548;2022-08-21T11:29:28;30.10;42.30
19567;DHT22;9930;49.240;8.548;2022-08-21T11:36:12;30.30;41.90
19567;DHT22;9930;49.240;8.548;2022-08-21T11:45:02;30.50;41.10
19567;DHT22;9930;49.240;8.548;2022-08-21T11:56:03;30.60;40.50
19567;DHT22;9930;49.240;8.548;2022-08-21T12:01:53;30.60;40.00
19567;DHT22;9930;49.240;8.548;2022-08-21T12:04:31;30.60;39.70
19567;DHT22;9930;49.240;8.548;2022-08-21T12:07:30;30.70;39.70
19567;DHT22;9930;49.240;8.548;2022-08-21T12:10:46;30.70;39.50
19567;DHT22;9930;49.240;8.548;2022-08-21T12:21:50;30.70;38.50
19567;DHT22;9930;49.240;8.548;2022-08-21T12:25:02;30.70;38.90
19567;DHT22;9930;49.240;8.548;2022-08-21T12:27:50;30.70;39.40
19567;DHT22;9930;49.240;8.548;2022-08-21T12:30:37;30.80;38.50
19567;DHT22;9930;49.240;8.548;2022-08-21T12:33:42;30.80;38.90
19567;DHT22;9930;49.240;8.548;2022-08-21T12:36:53;30.80;38.70
19567;DHT22;9930;49.240;8.548;2022-08-21T12:39:36;30.80;38.10
19567;DHT22;9930;49.240;8.548;2022-08-21T12:45:23;30.90;37.70
19567;DHT22;9930;49.240;8.548;2022-08-21T12:49:41;30.90;37.70
19567;DHT22;9930;49.240;8.548;2022-08-21T12:55:30;30.90;37.30
19567;DHT22;9930;49.240;8.548;2022-08-21T12:58:50;30.90;37.10
19567;DHT22;9930;49.240;8.548;2022-08-21T13:05:05;30.90;36.80
19567;DHT22;9930;49.240;8.548;2022-08-21T13:08:30;30.90;36.30
19567;DHT22;9930;49.240;8.548;2022-08-21T13:14:54;30.90;36.40
19567;DHT22;9930;49.240;8.548;2022-08-21T13:17:46;30.90;36.50
19567;DHT22;9930;49.240;8.548;2022-08-21T13:21:10;30.80;35.50
19567;DHT22;9930;49.240;8.548;2022-08-21T13:27:28;30.90;34.10
19567;DHT22;9930;49.240;8.548;2022-08-21T13:30:21;30.90;34.40
19567;DHT22;9930;49.240;8.548;2022-08-21T13:33:43;31.00;33.30
19567;DHT22;9930;49.240;8.548;2022-08-21T13:37:07;31.00;33.60
19567;DHT22;9930;49.240;8.548;2022-08-21T13:39:58;31.00;33.20
19567;DHT22;9930;49.240;8.548;2022-08-21T13:42:27;31.10;33.20
19567;DHT22;9930;49.240;8.548;2022-08-21T13:45:32;31.10;33.50
19567;DHT22;9930;49.240;8.548;2022-08-21T13:48:45;31.10;32.90
19567;DHT22;9930;49.240;8.548;2022-08-21T13:51:22;31.10;33.40
19567;DHT22;9930;49.240;8.548;2022-08-21T13:53:55;31.10;33.80
19567;DHT22;9930;49.240;8.548;2022-08-21T13:57:03;31.10;34.00
19567;DHT22;9930;49.240;8.548;2022-08-21T14:03:26;31.10;33.70
19567;DHT22;9930;49.240;8.548;2022-08-21T14:06:19;31.20;33.70
19567;DHT22;9930;49.240;8.548;2022-08-21T14:09:07;31.20;33.60
19567;DHT22;9930;49.240;8.548;2022-08-21T14:12:11;31.20;32.90
19567;DHT22;9930;49.240;8.548;2022-08-21T14:14:44;31.20;33.20
19567;DHT22;9930;49.240;8.548;2022-08-21T14:17:34;31.20;33.10
19567;DHT22;9930;49.240;8.548;2022-08-21T14:20:04;31.10;32.80
19567;DHT22;9930;49.240;8.548;2022-08-21T14:22:36;31.10;33.10
19567;DHT22;9930;49.240;8.548;2022-08-21T14:27:50;31.10;33.30
19567;DHT22;9930;49.240;8.548;2022-08-21T14:30:31;31.00;32.90
19567;DHT22;9930;49.240;8.548;2022-08-21T14:33:00;31.00;32.80
19567;DHT22;9930;49.240;8.548;2022-08-21T14:35:29;31.00;33.00
19567;DHT22;9930;49.240;8.548;2022-08-21T14:38:00;31.00;33.20
19567;DHT22;9930;49.240;8.548;2022-08-21T14:40:28;31.00;33.10
19567;DHT22;9930;49.240;8.548;2022-08-21T14:42:54;31.00;33.20
19567;DHT22;9930;49.240;8.548;2022-08-21T14:45:26;31.00;33.20
19567;DHT22;9930;49.240;8.548;2022-08-21T14:47:54;31.10;33.00
19567;DHT22;9930;49.240;8.548;2022-08-21T14:50:25;31.10;33.20
19567;DHT22;9930;49.240;8.548;2022-08-21T14:52:54;31.10;33.20
19567;DHT22;9930;49.240;8.548;2022-08-21T14:55:19;31.00;33.20
19567;DHT22;9930;49.240;8.548;2022-08-21T14:57:49;31.00;33.00
19567;DHT22;9930;49.240;8.548;2022-08-21T15:00:21;31.10;33.20
19567;DHT22;9930;49.240;8.548;2022-08-21T15:02:51;31.00;33.00
19567;DHT22;9930;49.240;8.548;2022-08-21T15:05:17;31.00;33.00
19567;DHT22;9930;49.240;8.548;2022-08-21T15:07:46;31.00;32.90
19567;DHT22;9930;49.240;8.548;2022-08-21T15:10:13;31.00;33.00
19567;DHT22;9930;49.240;8.548;2022-08-21T15:12:41;31.00;33.20
19567;DHT22;9930;49.240;8.548;2022-08-21T15:15:12;31.00;33.10
19567;DHT22;9930;49.240;8.548;2022-08-21T15:17:41;31.00;33.00
19567;DHT22;9930;49.240;8.548;2022-08-21T15:20:09;31.00;33.00
19567;DHT22;9930;49.240;8.548;2022-08-21T15:22:35;31.00;33.10
19567;DHT22;9930;49.240;8.548;2022-08-21T15:25:01;31.00;33.10
19567;DHT22;9930;49.240;8.548;2022-08-21T15:27:29;31.00;33.00
19567;DHT22;9930;49.240;8.548;2022-08-21T15:29:57;30.90;33.00
19567;DHT22;9930;49.240;8.548;2022-08-21T15:32:26;31.00;33.10
19567;DHT22;9930;49.240;8.548;2022-08-21T15:34:55;30.90;32.90
19567;DHT22;9930;49.240;8.548;2022-08-21T15:37:25;30.90;32.90
19567;DHT22;9930;49.240;8.548;2022-08-21T15:39:51;30.90;32.90
19567;DHT22;9930;49.240;8.548;2022-08-21T15:42:21;30.90;33.00
19567;DHT22;9930;49.240;8.548;2022-08-21T15:44:48;30.90;33.00
19567;DHT22;9930;49.240;8.548;2022-08-21T15:47:20;30.80;33.00
19567;DHT22;9930;49.240;8.548;2022-08-21T15:49:49;30.80;33.10
19567;DHT22;9930;49.240;8.548;2022-08-21T15:52:20;30.80;33.20
19567;DHT22;9930;49.240;8.548;2022-08-21T15:54:48;30.80;33.20
19567;DHT22;9930;49.240;8.548;2022-08-21T15:57:17;30.80;33.20
19567;DHT22;9930;49.240;8.548;2022-08-21T15:59:50;30.80;33.20
19567;DHT22;9930;49.240;8.548;2022-08-21T16:02:27;30.70;33.10
19567;DHT22;9930;49.240;8.548;2022-08-21T16:04:59;30.70;33.20
19567;DHT22;9930;49.240;8.548;2022-08-21T16:07:32;30.70;33.30
19567;DHT22;9930;49.240;8.548;2022-08-21T16:09:57;30.60;33.20
19567;DHT22;9930;49.240;8.548;2022-08-21T16:12:27;30.60;33.30
19567;DHT22;9930;49.240;8.548;2022-08-21T16:14:57;30.60;33.50
19567;DHT22;9930;49.240;8.548;2022-08-21T16:17:28;30.50;33.40
19567;DHT22;9930;49.240;8.548;2022-08-21T16:20:00;30.50;33.40
19567;DHT22;9930;49.240;8.548;2022-08-21T16:22:29;30.50;33.50
19567;DHT22;9930;49.240;8.548;2022-08-21T16:24:55;30.50;33.40
19567;DHT22;9930;49.240;8.548;2022-08-21T16:27:21;30.50;33.40
19567;DHT22;9930;49.240;8.548;2022-08-21T16:29:47;30.50;33.40
19567;DHT22;9930;49.240;8.548;2022-08-21T16:32:14;30.50;33.40
19567;DHT22;9930;49.240;8.548;2022-08-21T16:34:46;30.40;33.30
19567;DHT22;9930;49.240;8.548;2022-08-21T16:37:15;30.40;33.30
19567;DHT22;9930;49.240;8.548;2022-08-21T16:39:44;30.40;33.40
19567;DHT22;9930;49.240;8.548;2022-08-21T16:42:16;30.30;33.40
19567;DHT22;9930;49.240;8.548;2022-08-21T16:44:44;30.30;33.40
19567;DHT22;9930;49.240;8.548;2022-08-21T16:47:14;30.20;33.40
19567;DHT22;9930;49.240;8.548;2022-08-21T16:49:42;30.20;33.50
19567;DHT22;9930;49.240;8.548;2022-08-21T16:52:12;30.10;33.60
19567;DHT22;9930;49.240;8.548;2022-08-21T16:54:41;30.10;33.70
19567;DHT22;9930;49.240;8.548;2022-08-21T16:57:12;30.10;33.70
19567;DHT22;9930;49.240;8.548;2022-08-21T16:59:44;30.10;34.10
19567;DHT22;9930;49.240;8.548;2022-08-21T17:02:35;30.00;34.00
19567;DHT22;9930;49.240;8.548;2022-08-21T17:05:11;29.90;33.80
19567;DHT22;9930;49.240;8.548;2022-08-21T17:07:42;30.00;34.00
19567;DHT22;9930;49.240;8.548;2022-08-21T17:10:13;29.90;34.00
19567;DHT22;9930;49.240;8.548;2022-08-21T17:12:43;29.90;33.90
19567;DHT22;9930;49.240;8.548;2022-08-21T17:15:37;29.80;33.80
19567;DHT22;9930;49.240;8.548;2022-08-21T17:18:13;29.80;33.80
19567;DHT22;9930;49.240;8.548;2022-08-21T17:20:42;29.70;33.90
19567;DHT22;9930;49.240;8.548;2022-08-21T17:23:12;29.70;34.00
19567;DHT22;9930;49.240;8.548;2022-08-21T17:25:43;29.70;33.90
19567;DHT22;9930;49.240;8.548;2022-08-21T17:28:31;29.70;33.90
19567;DHT22;9930;49.240;8.548;2022-08-21T17:31:01;29.60;33.90
19567;DHT22;9930;49.240;8.548;2022-08-21T17:33:31;29.70;34.00
19567;DHT22;9930;49.240;8.548;2022-08-21T17:36:03;29.60;33.90
19567;DHT22;9930;49.240;8.548;2022-08-21T17:38:31;29.60;34.00
19567;DHT22;9930;49.240;8.548;2022-08-21T17:40:57;29.60;34.60
19567;DHT22;9930;49.240;8.548;2022-08-21T17:43:25;29.60;34.00
19567;DHT22;9930;49.240;8.548;2022-08-21T17:45:51;29.50;34.00
19567;DHT22;9930;49.240;8.548;2022-08-21T17:48:19;29.50;34.10
19567;DHT22;9930;49.240;8.548;2022-08-21T17:50:45;29.50;34.10
19567;DHT22;9930;49.240;8.548;2022-08-21T17:53:13;29.40;34.10
19567;DHT22;9930;49.240;8.548;2022-08-21T17:55:42;29.40;34.10
19567;DHT22;9930;49.240;8.548;2022-08-21T17:58:13;29.40;34.30
19567;DHT22;9930;49.240;8.548;2022-08-21T18:00:45;29.30;34.30
19567;DHT22;9930;49.240;8.548;2022-08-21T18:03:20;29.30;34.40
19567;DHT22;9930;49.240;8.548;2022-08-21T18:05:49;29.20;34.50
19567;DHT22;9930;49.240;8.548;2022-08-21T18:08:20;29.20;34.50
19567;DHT22;9930;49.240;8.548;2022-08-21T18:10:47;29.10;34.50
19567;DHT22;9930;49.240;8.548;2022-08-21T18:13:28;29.10;34.70
19567;DHT22;9930;49.240;8.548;2022-08-21T18:15:57;28.90;34.70
19567;DHT22;9930;49.240;8.548;2022-08-21T18:18:37;28.90;34.80
19567;DHT22;9930;49.240;8.548;2022-08-21T18:21:10;28.80;34.80
19567;DHT22;9930;49.240;8.548;2022-08-21T18:23:41;28.70;34.90
19567;DHT22;9930;49.240;8.548;2022-08-21T18:26:15;28.70;35.00
19567;DHT22;9930;49.240;8.548;2022-08-21T18:28:48;28.60;35.10
19567;DHT22;9930;49.240;8.548;2022-08-21T18:31:14;28.50;35.20
19567;DHT22;9930;49.240;8.548;2022-08-21T18:33:42;28.40;35.40
19567;DHT22;9930;49.240;8.548;2022-08-21T18:36:15;28.40;35.60
19567;DHT22;9930;49.240;8.548;2022-08-21T18:38:42;28.30;35.70
19567;DHT22;9930;49.240;8.548;2022-08-21T18:41:11;28.20;35.90
19567;DHT22;9930;49.240;8.548;2022-08-21T18:43:42;28.20;36.00
19567;DHT22;9930;49.240;8.548;2022-08-21T18:46:12;28.00;36.10
19567;DHT22;9930;49.240;8.548;2022-08-21T18:48:42;28.00;36.30
19567;DHT22;9930;49.240;8.548;2022-08-21T18:51:15;27.90;36.30
19567;DHT22;9930;49.240;8.548;2022-08-21T18:53:42;27.80;36.50
19567;DHT22;9930;49.240;8.548;2022-08-21T18:56:12;27.80;36.50
19567;DHT22;9930;49.240;8.548;2022-08-21T18:58:43;27.70;36.60
19567;DHT22;9930;49.240;8.548;2022-08-21T19:01:19;27.60;36.60
19567;DHT22;9930;49.240;8.548;2022-08-21T19:03:47;27.50;37.50
19567;DHT22;9930;49.240;8.548;2022-08-21T19:06:13;27.40;36.80
19567;DHT22;9930;49.240;8.548;2022-08-21T19:08:42;27.40;37.00
19567;DHT22;9930;49.240;8.548;2022-08-21T19:11:12;27.30;37.20
19567;DHT22;9930;49.240;8.548;2022-08-21T19:13:45;27.30;37.30